createdAt,value
2018-07-27T00:03:58.157Z,26.90
2018-07-27T00:08:54.802Z,27.00
2018-07-27T00:11:23.199Z,27.00
2018-07-27T00:13:51.984Z,26.90
2018-07-27T00:16:20.604Z,26.90
2018-07-27T00:18:49.020Z,27.00
2018-07-27T00:21:17.449Z,27.00
2018-07-27T00:23:45.891Z,26.90
2018-07-27T00:26:14.601Z,27.00
2018-07-27T00:28:43.123Z,26.90
2018-07-27T00:31:11.593Z,26.90
2018-07-27T00:33:40.075Z,26.90
2018-07-27T00:36:08.817Z,26.90
2018-07-27T00:38:37.239Z,26.90
2018-07-27T00:41:05.780Z,26.90
2018-07-27T00:43:34.187Z,26.90
2018-07-27T00:46:02.601Z,26.90
2018-07-27T00:48:31.025Z,26.90
2018-07-27T00:50:59.693Z,26.90
2018-07-27T00:53:28.134Z,26.80
2018-07-27T00:55:56.873Z,26.70
2018-07-27T00:58:25.360Z,26.70
2018-07-27T01:00:53.883Z,26.60
2018-07-27T01:03:22.399Z,26.70
2018-07-27T01:05:50.846Z,26.70
2018-07-27T01:08:19.371Z,26.70
2018-07-27T01:10:47.913Z,26.80
2018-07-27T01:13:16.471Z,26.80
2018-07-27T01:15:44.910Z,26.70
2018-07-27T01:18:13.360Z,26.90
2018-07-27T01:20:41.973Z,26.90
2018-07-27T01:23:10.521Z,26.80
2018-07-27T01:25:39.053Z,26.80
2018-07-27T01:28:08.276Z,26.80
2018-07-27T01:30:36.908Z,26.80
2018-07-27T01:33:05.441Z,26.80
2018-07-27T01:35:33.929Z,26.80
2018-07-27T01:38:02.368Z,26.80
2018-07-27T01:40:31.103Z,26.80
2018-07-27T01:42:59.585Z,26.80
2018-07-27T01:45:27.980Z,26.80
2018-07-27T01:47:56.537Z,26.80
2018-07-27T01:50:25.110Z,26.80
2018-07-27T01:52:53.557Z,26.80
2018-07-27T01:55:22.056Z,26.70
2018-07-27T01:57:50.455Z,26.70
2018-07-27T02:00:18.895Z,26.70
2018-07-27T02:02:47.343Z,26.60
2018-07-27T02:05:15.921Z,26.70
2018-07-27T02:07:44.380Z,26.80
2018-07-27T02:10:12.911Z,26.80
2018-07-27T02:12:41.325Z,26.80
2018-07-27T02:15:10.285Z,26.80
2018-07-27T02:17:39.173Z,26.50
2018-07-27T02:20:07.691Z,26.80
2018-07-27T02:22:36.707Z,26.80
2018-07-27T02:27:33.640Z,26.80
2018-07-27T02:30:02.026Z,26.80
2018-07-27T02:34:58.621Z,26.90
2018-07-27T02:37:27.096Z,26.80
2018-07-27T02:39:55.955Z,26.80
2018-07-27T02:44:52.583Z,26.50
2018-07-27T02:47:21.038Z,26.30
2018-07-27T02:49:49.549Z,26.20
2018-07-27T02:52:18.072Z,26.20
2018-07-27T02:54:46.515Z,26.30
2018-07-27T02:57:15.697Z,26.30
2018-07-27T02:59:44.919Z,26.40
2018-07-27T03:02:13.309Z,26.30
2018-07-27T03:04:42.008Z,26.30
2018-07-27T03:07:10.464Z,26.40
2018-07-27T03:09:38.946Z,26.50
2018-07-27T03:12:07.432Z,26.50
2018-07-27T03:14:35.865Z,26.50
2018-07-27T03:17:04.826Z,26.50
2018-07-27T03:19:33.245Z,26.50
2018-07-27T03:22:01.886Z,26.60
2018-07-27T03:24:30.998Z,26.60
2018-07-27T03:26:59.565Z,26.60
2018-07-27T03:29:28.065Z,26.60
2018-07-27T03:31:56.554Z,26.60
2018-07-27T03:34:25.038Z,26.60
2018-07-27T03:36:53.514Z,26.60
2018-07-27T03:39:24.515Z,26.50
2018-07-27T03:41:53.114Z,26.50
2018-07-27T03:44:21.630Z,26.40
2018-07-27T03:46:50.073Z,26.50
2018-07-27T03:49:18.480Z,26.50
2018-07-27T03:51:47.068Z,26.50
2018-07-27T03:56:43.698Z,26.40
2018-07-27T03:59:12.110Z,26.40
2018-07-27T04:01:45.361Z,26.40
2018-07-27T04:04:13.833Z,26.50
2018-07-27T04:06:42.428Z,26.50
2018-07-27T04:09:10.870Z,26.40
2018-07-27T04:11:40.357Z,26.30
2018-07-27T04:14:09.502Z,26.30
2018-07-27T04:16:37.959Z,26.30
2018-07-27T04:19:06.442Z,26.30
2018-07-27T04:21:34.967Z,26.20
2018-07-27T04:24:03.406Z,26.10
2018-07-27T04:26:31.926Z,25.90
2018-07-27T04:29:00.478Z,25.80
2018-07-27T04:31:28.953Z,25.90
2018-07-27T04:34:04.202Z,25.90
2018-07-27T04:36:32.708Z,25.90
2018-07-27T04:39:01.274Z,26.00
2018-07-27T04:41:29.725Z,26.10
2018-07-27T04:43:58.172Z,26.20
2018-07-27T04:46:26.701Z,26.20
2018-07-27T04:48:55.381Z,26.30
2018-07-27T04:51:23.992Z,26.30
2018-07-27T04:53:53.155Z,26.40
2018-07-27T04:56:21.728Z,26.40
2018-07-27T04:58:50.222Z,26.40
2018-07-27T05:01:18.934Z,26.30
2018-07-27T05:03:47.388Z,26.30
2018-07-27T05:06:15.786Z,26.30
2018-07-27T05:08:49.678Z,26.30
2018-07-27T05:11:18.119Z,26.20
2018-07-27T05:13:46.653Z,26.20
2018-07-27T05:16:15.112Z,26.20
2018-07-27T05:18:43.569Z,26.20
2018-07-27T05:21:12.014Z,26.30
2018-07-27T05:26:08.680Z,26.40
2018-07-27T05:28:37.199Z,26.40
2018-07-27T05:31:05.909Z,26.40
2018-07-27T05:33:34.365Z,26.50
2018-07-27T05:36:02.849Z,26.50
2018-07-27T05:38:31.325Z,26.50
2018-07-27T05:40:59.896Z,26.50
2018-07-27T05:43:28.342Z,26.60
2018-07-27T05:45:56.968Z,26.60
2018-07-27T05:48:25.596Z,26.60
2018-07-27T05:50:54.605Z,26.70
2018-07-27T05:53:23.006Z,26.70
2018-07-27T05:55:51.664Z,26.80
2018-07-27T05:58:20.573Z,26.80
2018-07-27T06:00:49.116Z,26.80
2018-07-27T06:03:17.672Z,26.90
2018-07-27T06:05:46.151Z,26.80
2018-07-27T06:08:14.560Z,26.90
2018-07-27T06:10:42.978Z,26.90
2018-07-27T06:13:11.402Z,26.90
2018-07-27T06:15:39.960Z,26.90
2018-07-27T06:18:10.820Z,26.90
2018-07-27T06:20:39.177Z,26.90
2018-07-27T06:23:07.783Z,27.00
2018-07-27T06:28:04.584Z,27.00
2018-07-27T06:33:03.014Z,27.00
2018-07-27T06:35:31.623Z,27.00
2018-07-27T06:38:00.178Z,27.00
2018-07-27T06:40:28.661Z,27.00
2018-07-27T06:42:57.124Z,27.00
2018-07-27T06:45:25.568Z,27.00
2018-07-27T06:47:54.290Z,27.00
2018-07-27T06:50:22.718Z,27.00
2018-07-27T06:52:51.234Z,27.00
2018-07-27T06:55:19.611Z,27.00
2018-07-27T06:57:48.092Z,27.00
2018-07-27T07:00:16.549Z,27.00
2018-07-27T07:02:44.944Z,27.00
2018-07-27T07:05:13.383Z,27.10
2018-07-27T07:07:41.814Z,27.00
2018-07-27T07:10:10.547Z,27.00
2018-07-27T07:12:39.011Z,27.10
2018-07-27T07:17:35.953Z,27.10
2018-07-27T07:20:04.899Z,27.10
2018-07-27T07:22:33.335Z,27.10
2018-07-27T07:25:01.740Z,27.10
2018-07-27T07:27:30.204Z,27.10
2018-07-27T07:29:58.813Z,27.10
2018-07-27T07:32:27.322Z,27.10
2018-07-27T07:34:55.725Z,27.10
2018-07-27T07:37:24.164Z,27.10
2018-07-27T07:39:52.515Z,27.10
2018-07-27T07:42:20.909Z,27.20
2018-07-27T07:44:49.324Z,27.20
2018-07-27T07:47:17.820Z,27.20
2018-07-27T07:49:46.245Z,27.20
2018-07-27T07:52:14.966Z,27.20
2018-07-27T07:54:43.457Z,27.20
2018-07-27T07:57:11.955Z,27.30
2018-07-27T08:02:08.619Z,27.30
2018-07-27T08:04:37.041Z,27.20
2018-07-27T08:07:05.918Z,27.30
2018-07-27T08:09:35.663Z,27.30
2018-07-27T08:12:04.239Z,27.20
2018-07-27T08:14:32.629Z,27.30
2018-07-27T08:17:01.041Z,27.20
2018-07-27T08:19:29.438Z,27.30
2018-07-27T08:21:58.553Z,27.20
2018-07-27T08:24:27.057Z,27.30
2018-07-27T08:26:58.961Z,27.40
2018-07-27T08:29:29.656Z,27.40
2018-07-27T08:31:58.690Z,27.40
2018-07-27T08:34:27.269Z,27.40
2018-07-27T08:36:56.693Z,27.40
2018-07-27T08:39:26.458Z,27.40
2018-07-27T08:41:55.092Z,27.40
2018-07-27T08:44:26.235Z,27.40
2018-07-27T08:46:56.043Z,27.40
2018-07-27T08:49:24.492Z,27.80
2018-07-27T08:51:53.177Z,28.10
2018-07-27T08:54:21.629Z,28.30
2018-07-27T08:56:50.104Z,28.30
2018-07-27T08:59:18.555Z,28.40
2018-07-27T09:01:46.964Z,28.30
2018-07-27T09:06:43.692Z,28.10
2018-07-27T09:09:13.908Z,28.00
2018-07-27T09:11:42.376Z,28.00
2018-07-27T09:14:10.933Z,27.90
2018-07-27T09:16:39.509Z,27.80
2018-07-27T09:19:07.937Z,27.80
2018-07-27T09:21:36.474Z,27.80
2018-07-27T09:24:04.930Z,27.70
2018-07-27T09:29:01.624Z,27.70
2018-07-27T09:31:30.064Z,27.60
2018-07-27T09:33:58.487Z,27.60
2018-07-27T09:36:26.965Z,27.60
2018-07-27T09:38:55.403Z,27.60
2018-07-27T09:41:23.971Z,27.60
2018-07-27T09:43:52.691Z,27.60
2018-07-27T09:46:21.826Z,27.60
2018-07-27T09:48:52.167Z,27.60
2018-07-27T09:51:22.081Z,27.60
2018-07-27T09:53:50.897Z,27.50
2018-07-27T09:56:19.386Z,27.60
2018-07-27T09:58:47.815Z,27.60
2018-07-27T10:01:23.574Z,27.50
2018-07-27T10:03:52.897Z,27.50
2018-07-27T10:08:49.741Z,27.50
2018-07-27T10:11:18.339Z,27.50
2018-07-27T10:13:46.882Z,27.60
2018-07-27T10:16:15.335Z,27.60
2018-07-27T10:18:43.695Z,27.60
2018-07-27T10:21:12.121Z,27.50
2018-07-27T10:23:40.488Z,27.50
2018-07-27T10:26:08.999Z,27.50
2018-07-27T10:28:37.451Z,27.50
2018-07-27T10:31:05.890Z,27.50
2018-07-27T10:33:35.501Z,27.50
2018-07-27T10:36:03.893Z,27.50
2018-07-27T10:38:32.381Z,27.50
2018-07-27T10:41:00.888Z,27.50
2018-07-27T10:43:29.353Z,27.60
2018-07-27T10:45:57.774Z,27.60
2018-07-27T10:48:26.235Z,27.60
2018-07-27T10:50:54.660Z,27.60
2018-07-27T10:53:23.191Z,27.50
2018-07-27T10:55:51.668Z,27.60
2018-07-27T10:58:20.109Z,27.60
2018-07-27T11:00:48.559Z,27.60
2018-07-27T11:03:16.999Z,27.60
2018-07-27T11:05:45.580Z,27.60
2018-07-27T11:08:14.073Z,27.50
2018-07-27T11:10:42.559Z,27.60
2018-07-27T11:13:11.020Z,27.60
2018-07-27T11:18:07.550Z,27.60
2018-07-27T11:20:35.985Z,27.50
2018-07-27T11:23:04.667Z,27.50
2018-07-27T11:25:33.272Z,27.50
2018-07-27T11:28:01.673Z,27.50
2018-07-27T11:30:30.354Z,27.50
2018-07-27T11:32:59.099Z,27.50
2018-07-27T11:35:28.129Z,27.50
2018-07-27T11:37:56.822Z,27.50
2018-07-27T11:40:25.269Z,27.50
2018-07-27T11:42:53.669Z,27.50
2018-07-27T11:45:22.207Z,27.50
2018-07-27T11:47:50.599Z,27.50
2018-07-27T11:50:19.154Z,27.50
2018-07-27T11:52:47.535Z,27.50
2018-07-27T11:55:16.010Z,27.50
2018-07-27T11:57:44.662Z,27.50
2018-07-27T12:00:13.187Z,27.40
2018-07-27T12:02:41.777Z,27.40
2018-07-27T12:05:11.197Z,27.50
2018-07-27T12:07:40.051Z,27.50
2018-07-27T12:10:08.639Z,27.50
2018-07-27T12:12:37.207Z,27.50
2018-07-27T12:15:05.926Z,27.50
2018-07-27T12:17:34.218Z,27.50
2018-07-27T12:20:02.662Z,27.50
2018-07-27T12:22:32.436Z,27.50
2018-07-27T12:25:01.063Z,27.50
2018-07-27T12:27:29.616Z,27.50
2018-07-27T12:29:58.064Z,27.40
2018-07-27T12:32:26.477Z,27.40
2018-07-27T12:34:55.119Z,27.40
2018-07-27T12:37:23.559Z,27.40
2018-07-27T12:39:52.106Z,27.40
2018-07-27T12:42:20.647Z,27.40
2018-07-27T12:44:49.048Z,27.40
2018-07-27T12:47:17.714Z,27.40
2018-07-27T12:49:46.576Z,27.40
2018-07-27T12:52:15.027Z,27.40
2018-07-27T12:57:11.617Z,27.40
2018-07-27T12:59:40.047Z,27.40
2018-07-27T13:02:08.517Z,27.40
2018-07-27T13:04:37.537Z,27.40
2018-07-27T13:07:06.179Z,27.40
2018-07-27T13:09:34.631Z,27.40
2018-07-27T13:12:03.135Z,27.40
2018-07-27T13:17:00.336Z,27.40
2018-07-27T13:19:28.775Z,27.40
2018-07-27T13:21:57.289Z,27.40
2018-07-27T13:26:54.441Z,27.40
2018-07-27T13:29:22.939Z,27.40
2018-07-27T13:31:54.560Z,27.40
2018-07-27T13:34:31.293Z,27.40
2018-07-27T13:37:00.159Z,27.40
2018-07-27T13:39:28.564Z,27.40
2018-07-27T13:41:57.600Z,27.30
2018-07-27T13:44:26.152Z,27.40
2018-07-27T13:46:54.561Z,27.40
2018-07-27T13:49:22.998Z,27.40
2018-07-27T13:51:51.439Z,27.40
2018-07-27T13:54:19.900Z,27.40
2018-07-27T13:56:48.755Z,27.30
2018-07-27T13:59:18.273Z,27.30
2018-07-27T14:01:47.426Z,27.30
2018-07-27T14:04:15.813Z,27.30
2018-07-27T14:06:45.984Z,27.30
2018-07-27T14:11:43.242Z,27.30
2018-07-27T14:14:12.091Z,27.30
2018-07-27T14:16:41.056Z,27.30
2018-07-27T14:19:09.584Z,27.30
2018-07-27T14:21:38.001Z,27.40
2018-07-27T14:24:06.422Z,27.40
2018-07-27T14:26:35.074Z,27.30
2018-07-27T14:29:03.545Z,27.40
2018-07-27T14:31:31.977Z,27.40
2018-07-27T14:34:00.431Z,27.40
2018-07-27T14:36:29.073Z,27.40
2018-07-27T14:38:57.565Z,27.40
2018-07-27T14:41:25.945Z,27.40
2018-07-27T14:46:22.652Z,27.40
2018-07-27T14:48:51.374Z,27.40
2018-07-27T14:51:19.783Z,27.40
2018-07-27T14:53:48.330Z,27.40
2018-07-27T14:58:45.837Z,27.40
2018-07-27T15:01:14.423Z,27.40
2018-07-27T15:03:42.901Z,27.40
2018-07-27T15:06:11.414Z,27.40
2018-07-27T15:08:39.890Z,27.40
2018-07-27T15:11:08.547Z,27.40
2018-07-27T15:13:37.171Z,27.40
2018-07-27T15:16:05.589Z,27.40
2018-07-27T15:18:34.051Z,27.40
2018-07-27T15:23:30.735Z,27.40
2018-07-27T15:25:59.363Z,27.40
2018-07-27T15:28:27.819Z,27.40
2018-07-27T15:30:56.460Z,27.40
2018-07-27T15:33:24.980Z,27.40
2018-07-27T15:35:53.549Z,27.40
2018-07-27T15:38:22.021Z,27.40
2018-07-27T15:40:50.444Z,27.40
2018-07-27T15:43:18.989Z,27.40
2018-07-27T15:45:47.356Z,27.40
2018-07-27T15:48:15.860Z,27.40
2018-07-27T15:50:44.204Z,27.50
2018-07-27T15:53:12.726Z,27.40
2018-07-27T15:55:41.815Z,27.50
2018-07-27T15:58:10.564Z,27.50
2018-07-27T16:00:38.924Z,27.50
2018-07-27T16:03:07.372Z,27.50
2018-07-27T16:05:35.796Z,27.50
2018-07-27T16:08:04.212Z,27.50
2018-07-27T16:10:32.716Z,27.50
2018-07-27T16:13:01.191Z,27.50
2018-07-27T16:15:29.716Z,27.50
2018-07-27T16:17:58.159Z,27.50
2018-07-27T16:22:55.141Z,27.60
2018-07-27T16:25:23.537Z,27.60
2018-07-27T16:27:51.935Z,27.60
2018-07-27T16:30:20.473Z,27.60
2018-07-27T16:32:48.887Z,27.60
2018-07-27T16:35:17.278Z,27.60
2018-07-27T16:37:45.635Z,27.60
2018-07-27T16:40:14.079Z,27.60
2018-07-27T16:42:42.685Z,27.60
2018-07-27T16:45:11.122Z,27.60
2018-07-27T16:47:39.694Z,27.60
2018-07-27T16:50:08.588Z,27.60
2018-07-27T16:52:37.137Z,27.50
2018-07-27T16:55:05.681Z,27.50
2018-07-27T16:57:34.170Z,27.50
2018-07-27T17:00:03.025Z,27.50
2018-07-27T17:02:32.022Z,27.50
2018-07-27T17:05:00.447Z,27.50
2018-07-27T17:07:28.911Z,27.50
2018-07-27T17:09:57.756Z,27.50
2018-07-27T17:12:26.199Z,27.50
2018-07-27T17:14:54.758Z,27.50
2018-07-27T17:17:23.276Z,27.40
2018-07-27T17:19:51.702Z,27.40
2018-07-27T17:22:20.104Z,27.40
2018-07-27T17:24:48.692Z,27.40
2018-07-27T17:27:17.205Z,27.40
2018-07-27T17:29:45.604Z,27.40
2018-07-27T17:32:14.142Z,27.40
2018-07-27T17:34:42.574Z,27.50
2018-07-27T17:37:11.162Z,27.50
2018-07-27T17:39:39.592Z,27.50
2018-07-27T17:42:07.969Z,27.50
2018-07-27T17:44:36.490Z,27.50
2018-07-27T17:47:05.872Z,27.50
2018-07-27T17:49:34.379Z,27.40
2018-07-27T17:54:31.210Z,27.50
2018-07-27T17:56:59.702Z,27.50
2018-07-27T17:59:28.177Z,27.50
2018-07-27T18:01:56.610Z,27.50
2018-07-27T18:04:25.076Z,27.50
2018-07-27T18:06:53.552Z,27.40
2018-07-27T18:09:21.962Z,27.40
2018-07-27T18:11:50.592Z,27.50
2018-07-27T18:14:19.042Z,27.50
2018-07-27T18:16:47.672Z,27.40
2018-07-27T18:19:16.086Z,27.50
2018-07-27T18:21:44.459Z,27.50
2018-07-27T18:24:12.963Z,27.50
2018-07-27T18:26:41.470Z,27.50
2018-07-27T18:29:10.233Z,27.40
2018-07-27T18:31:38.646Z,27.50
2018-07-27T18:34:07.126Z,27.50
2018-07-27T18:36:35.512Z,27.50
2018-07-27T18:39:06.078Z,27.50
2018-07-27T18:41:34.455Z,27.50
2018-07-27T18:44:02.938Z,27.50
2018-07-27T18:46:31.328Z,27.50
2018-07-27T18:48:59.720Z,27.60
2018-07-27T18:51:28.120Z,27.50
2018-07-27T18:53:56.548Z,27.50
2018-07-27T18:56:25.231Z,27.50
2018-07-27T18:58:53.671Z,27.50
2018-07-27T19:01:22.154Z,27.60
2018-07-27T19:03:50.642Z,27.50
2018-07-27T19:06:19.038Z,27.60
2018-07-27T19:08:47.450Z,27.50
2018-07-27T19:11:15.930Z,27.50
2018-07-27T19:13:44.339Z,27.50
2018-07-27T19:16:12.770Z,27.50
2018-07-27T19:18:41.208Z,27.50
2018-07-27T19:21:09.856Z,27.50
2018-07-27T19:23:38.670Z,27.50
2018-07-27T19:26:07.087Z,27.50
2018-07-27T19:28:35.560Z,27.50
2018-07-27T19:31:03.969Z,27.50
2018-07-27T19:33:32.499Z,27.50
2018-07-27T19:36:00.865Z,27.50
2018-07-27T19:38:29.212Z,27.40
2018-07-27T19:40:57.660Z,27.50
2018-07-27T19:43:26.069Z,27.40
2018-07-27T19:45:54.512Z,27.40
2018-07-27T19:48:23.086Z,27.40
2018-07-27T19:50:51.498Z,27.40
2018-07-27T19:53:19.917Z,27.40
2018-07-27T19:55:48.446Z,27.40
2018-07-27T19:58:16.862Z,27.40
2018-07-27T20:00:45.385Z,27.40
2018-07-27T20:03:13.861Z,27.50
2018-07-27T20:05:42.257Z,27.50
2018-07-27T20:08:10.784Z,27.50
2018-07-27T20:10:39.448Z,27.50
2018-07-27T20:13:07.904Z,27.40
2018-07-27T20:15:36.352Z,27.40
2018-07-27T20:18:05.041Z,27.40
2018-07-27T20:20:33.499Z,27.40
2018-07-27T20:23:01.948Z,27.40
2018-07-27T20:25:30.332Z,27.40
2018-07-27T20:27:58.771Z,27.40
2018-07-27T20:30:27.136Z,27.40
2018-07-27T20:32:55.544Z,27.40
2018-07-27T20:35:24.018Z,27.40
2018-07-27T20:37:52.597Z,27.40
2018-07-27T20:40:21.025Z,27.30
2018-07-27T20:42:49.372Z,27.40
2018-07-27T20:45:17.841Z,27.30
2018-07-27T20:47:46.540Z,27.30
2018-07-27T20:50:14.924Z,27.30
2018-07-27T20:52:43.327Z,27.30
2018-07-27T20:55:11.686Z,27.30
2018-07-27T20:57:40.677Z,27.30
2018-07-27T21:02:40.403Z,27.10
2018-07-27T21:07:36.908Z,27.10
2018-07-27T21:10:05.283Z,27.10
2018-07-27T21:12:33.795Z,27.10
2018-07-27T21:15:02.295Z,27.10
2018-07-27T21:17:30.744Z,27.10
2018-07-27T21:19:59.245Z,27.10
2018-07-27T21:22:27.582Z,27.10
2018-07-27T21:24:56.290Z,27.10
2018-07-27T21:27:24.851Z,27.20
2018-07-27T21:29:53.653Z,27.20
2018-07-27T21:32:22.077Z,27.10
2018-07-27T21:34:50.625Z,27.10
2018-07-27T21:37:19.081Z,27.10
2018-07-27T21:39:47.456Z,27.00
2018-07-27T21:42:15.894Z,27.00
2018-07-27T21:44:44.368Z,27.00
2018-07-27T21:47:12.792Z,27.10
2018-07-27T21:49:41.149Z,27.10
2018-07-27T21:52:09.535Z,27.10
2018-07-27T21:54:38.093Z,27.10
2018-07-27T21:57:06.498Z,27.00
2018-07-27T21:59:34.898Z,27.00
2018-07-27T22:02:03.289Z,27.00
2018-07-27T22:04:31.751Z,27.00
2018-07-27T22:07:00.205Z,27.10
2018-07-27T22:09:28.610Z,27.10
2018-07-27T22:11:56.973Z,27.00
2018-07-27T22:14:25.384Z,27.00
2018-07-27T22:16:53.896Z,26.90
2018-07-27T22:19:22.331Z,26.90
2018-07-27T22:21:50.755Z,26.90
2018-07-27T22:24:19.162Z,26.90
2018-07-27T22:26:47.823Z,26.90
2018-07-27T22:29:16.238Z,26.90
2018-07-27T22:34:12.800Z,26.90
2018-07-27T22:36:41.359Z,26.90
2018-07-27T22:39:10.844Z,27.00
2018-07-27T22:41:39.572Z,26.90
2018-07-27T22:44:08.147Z,26.90
2018-07-27T22:46:36.682Z,26.90
2018-07-27T22:49:05.052Z,26.90
2018-07-27T22:51:33.510Z,26.90
2018-07-27T22:54:01.923Z,26.90
2018-07-27T22:56:30.530Z,26.90
2018-07-27T22:58:59.108Z,26.90
2018-07-27T23:03:55.684Z,27.00
2018-07-27T23:06:24.116Z,27.00
2018-07-27T23:08:52.605Z,26.90
2018-07-27T23:11:20.963Z,26.90
2018-07-27T23:13:49.452Z,27.00
2018-07-27T23:16:17.913Z,27.00
2018-07-27T23:18:46.319Z,27.00
2018-07-27T23:21:14.718Z,27.00
2018-07-27T23:23:43.144Z,27.00
2018-07-27T23:26:11.602Z,26.90
2018-07-27T23:28:40.117Z,26.90
2018-07-27T23:31:08.637Z,26.90
2018-07-27T23:33:37.025Z,26.90
2018-07-27T23:36:05.428Z,26.90
2018-07-27T23:38:33.853Z,26.90
2018-07-27T23:41:02.289Z,26.90
2018-07-27T23:43:30.699Z,26.90
2018-07-27T23:45:59.224Z,27.00
2018-07-27T23:48:28.061Z,26.90
2018-07-27T23:50:56.449Z,27.00
2018-07-27T23:53:24.847Z,27.00
2018-07-27T23:55:53.324Z,27.00
2018-07-27T23:58:21.709Z,27.00
